Delta Virtual Airport Information Service

Mumbai Chhatrapati Shivaji International Airport

ICAO: VABB Country: India
Latitude: 19.0887 Longitude: 72.8679
Latest Arrival : DAC368 (CYYZ-VABB) Latest Departure : DAL5649972 (VABB-OMDB)


WX CaptureLIVE
Data provided by noaa.gov | Fetched at 03:27:52

METAR : VABB 030900Z 24006KT 2500 HZ FEW020 SCT025 29/22 Q1010 BECMG 3000 HZ

TAF : VABB 030500Z 0306/0412 11005KT 3000 HZ SCT018 SCT025 BECMG 0308/0310 25005KT 4000 HZ FU FEW020 SCT100 BECMG 0315/0317 34005KT 3000 HZ FU BECMG 0322/0324 VRB03KT 2000 BR HZ FEW100 BECMG 0403/0405 05006KT 2500 HZ FU FEW018 SCT025 BECMG 0408/0410 25005KT 3000 HZ FU FEW020 SCT100


Runway Data for VABB
Data provided by openaviationdata.com

Runway ID Mag Var Hdg Length Elevation Surface ILS Freq ILS Id ILS Slope
9 -1 91° 11337 ft 37 ft Asphalt 109.5 IBOM 3
14 -1 136° 9622 ft 37 ft Asphalt 110.1 IBBY 3
27 -1 271° 11337 ft 37 ft Asphalt 110.3 ISCZ 3
32 -1 316° 9622 ft 37 ft Asphalt -- -- --

Mumbai Chhatrapati Shivaji International Airport, India
Use only for reference purposes



Not for navigational purposes.